Time,TemperatureF,DewpointF,PressureIn,WindDirection,WindDirectionDegrees,WindSpeedMPH,WindSpeedGustMPH,Humidity,HourlyPrecipIn,Conditions,Clouds,dailyrainin,SoftwareType,DateUTC
2013-03-17 00:00:00,34.0,26.2,29.41,NW,323,0.0,0.0,73,-99.99,,---,-99.99,VWS V14.01,2013-03-17 04:00:00,
2013-03-17 00:02:00,34.2,26.4,29.41,NW,323,0.0,0.0,73,-99.99,,---,-99.99,VWS V14.01,2013-03-17 04:02:00,
2013-03-17 00:08:00,34.3,26.6,29.41,NW,323,0.0,0.0,73,-99.99,,---,-99.99,VWS V14.01,2013-03-17 04:08:00,
2013-03-17 00:13:00,34.2,26.1,29.41,NW,323,0.0,0.0,72,-99.99,,---,-99.99,VWS V14.01,2013-03-17 04:13:00,
2013-03-17 00:18:00,34.2,26.1,29.41,NW,323,0.0,0.0,72,-99.99,,---,-99.99,VWS V14.01,2013-03-17 04:18:00,
2013-03-17 00:23:00,34.3,25.9,29.41,NW,323,0.0,0.0,71,-99.99,,---,-99.99,VWS V14.01,2013-03-17 04:23:00,
2013-03-17 00:28:00,34.2,25.4,29.41,NW,323,0.0,0.0,70,-99.99,,---,-99.99,VWS V14.01,2013-03-17 04:28:00,
2013-03-17 00:34:00,34.2,25.1,29.41,NW,323,0.0,0.0,69,-99.99,,---,-99.99,VWS V14.01,2013-03-17 04:34:00,
2013-03-17 00:39:00,34.2,24.7,29.41,NW,323,0.0,0.0,68,-99.99,,---,-99.99,VWS V14.01,2013-03-17 04:39:00,
2013-03-17 00:44:00,34.2,24.0,29.41,NW,323,0.0,0.0,66,-99.99,,---,-99.99,VWS V14.01,2013-03-17 04:44:00,
2013-03-17 00:49:00,34.2,23.6,29.41,NW,323,0.0,0.0,65,-99.99,,---,-99.99,VWS V14.01,2013-03-17 04:49:00,
2013-03-17 00:54:00,34.0,23.1,29.41,NW,323,0.0,0.0,64,-99.99,,---,-99.99,VWS V14.01,2013-03-17 04:54:00,
2013-03-17 00:59:00,34.2,23.3,29.41,NW,323,0.0,0.0,64,-99.99,,---,-99.99,VWS V14.01,2013-03-17 04:59:00,
2013-03-17 01:04:00,34.2,22.9,29.41,NW,323,0.0,0.0,63,-99.99,,---,-99.99,VWS V14.01,2013-03-17 05:04:00,
2013-03-17 01:10:00,34.0,22.7,29.41,NW,323,0.0,0.0,63,-99.99,,---,-99.99,VWS V14.01,2013-03-17 05:10:00,
2013-03-17 01:15:00,34.0,22.4,29.41,NW,323,0.0,0.0,62,-99.99,,---,-99.99,VWS V14.01,2013-03-17 05:15:00,
2013-03-17 01:20:00,34.0,22.4,29.41,NW,323,0.0,0.0,62,-99.99,,---,-99.99,VWS V14.01,2013-03-17 05:20:00,
2013-03-17 01:25:00,34.0,22.0,29.41,NW,323,0.0,0.0,61,-99.99,,---,-99.99,VWS V14.01,2013-03-17 05:25:00,
2013-03-17 01:35:00,33.8,21.8,29.41,NW,323,0.0,0.0,61,-99.99,,---,-99.99,VWS V14.01,2013-03-17 05:35:00,
2013-03-17 01:40:00,33.8,21.4,29.41,NW,323,0.0,0.0,60,-99.99,,---,-99.99,VWS V14.01,2013-03-17 05:40:00,
2013-03-17 01:45:00,33.8,21.4,29.41,NW,323,0.0,0.0,60,-99.99,,---,-99.99,VWS V14.01,2013-03-17 05:45:00,
2013-03-17 01:51:00,33.8,21.4,29.41,NW,323,0.0,0.0,60,-99.99,,---,-99.99,VWS V14.01,2013-03-17 05:51:00,
2013-03-17 01:56:00,33.8,21.8,29.41,NW,322,0.0,0.0,61,-99.99,,---,-99.99,VWS V14.01,2013-03-17 05:56:00,
2013-03-17 02:01:00,33.8,21.8,29.41,NW,310,0.0,0.0,61,-99.99,,---,-99.99,VWS V14.01,2013-03-17 06:01:00,
2013-03-17 02:06:00,33.8,21.8,29.41,NW,326,0.0,0.0,61,-99.99,,---,-99.99,VWS V14.01,2013-03-17 06:06:00,
2013-03-17 02:12:00,33.8,21.8,29.41,NW,318,4.0,4.9,61,-99.99,,---,-99.99,VWS V14.01,2013-03-17 06:12:00,
2013-03-17 02:17:00,33.8,22.2,29.41,NW,312,4.0,4.0,62,-99.99,,---,-99.99,VWS V14.01,2013-03-17 06:17:00,
2013-03-17 02:22:00,33.8,22.5,29.41,NW,311,3.6,4.9,63,-99.99,,---,-99.99,VWS V14.01,2013-03-17 06:22:00,
2013-03-17 02:27:00,33.8,22.9,29.41,NNW,330,3.1,4.9,64,-99.99,,---,-99.99,VWS V14.01,2013-03-17 06:27:00,
2013-03-17 02:32:00,34.0,23.1,29.44,NW,313,2.7,3.6,64,-99.99,,---,-99.99,VWS V14.01,2013-03-17 06:32:00,
2013-03-17 02:37:00,34.0,23.1,29.44,NW,313,0.0,0.0,64,-99.99,,---,-99.99,VWS V14.01,2013-03-17 06:37:00,
2013-03-17 02:42:00,34.0,23.1,29.44,NW,313,0.0,0.0,64,-99.99,,---,-99.99,VWS V14.01,2013-03-17 06:42:00,
2013-03-17 02:48:00,34.0,23.1,29.44,NW,313,0.0,0.0,64,-99.99,,---,-99.99,VWS V14.01,2013-03-17 06:48:00,
2013-03-17 02:53:00,34.0,23.1,29.44,NW,325,3.1,3.6,64,-99.99,,---,-99.99,VWS V14.01,2013-03-17 06:53:00,
2013-03-17 02:58:00,34.0,23.1,29.44,NW,325,0.0,0.0,64,-99.99,,---,-99.99,VWS V14.01,2013-03-17 06:58:00,
2013-03-17 03:03:00,34.0,22.7,29.44,NW,319,0.0,0.0,63,-99.99,,---,-99.99,VWS V14.01,2013-03-17 07:03:00,
2013-03-17 03:09:00,34.0,22.4,29.44,NW,318,5.4,5.4,62,-99.99,,---,-99.99,VWS V14.01,2013-03-17 07:09:00,
2013-03-17 03:14:00,34.0,22.0,29.47,NNW,332,4.0,4.9,61,-99.99,,---,-99.99,VWS V14.01,2013-03-17 07:14:00,
2013-03-17 03:19:00,34.0,21.2,29.47,North,353,4.0,5.4,59,-99.99,,---,-99.99,VWS V14.01,2013-03-17 07:19:00,
2013-03-17 03:24:00,33.8,19.8,29.47,NW,324,5.4,5.4,56,-99.99,,---,-99.99,VWS V14.01,2013-03-17 07:24:00,
2013-03-17 03:29:00,33.6,18.8,29.47,NNW,345,2.2,4.9,54,-99.99,,---,-99.99,VWS V14.01,2013-03-17 07:29:00,
2013-03-17 03:34:00,33.4,18.2,29.47,NW,321,4.0,6.3,53,-99.99,,---,-99.99,VWS V14.01,2013-03-17 07:34:00,
2013-03-17 03:39:00,33.3,17.1,29.47,WNW,299,3.6,3.6,51,-99.99,,---,-99.99,VWS V14.01,2013-03-17 07:39:00,
2013-03-17 03:44:00,33.3,16.2,29.47,North,353,2.2,4.0,49,-99.99,,---,-99.99,VWS V14.01,2013-03-17 07:44:00,
2013-03-17 03:49:00,33.1,15.1,29.47,NNW,334,4.9,5.4,47,-99.99,,---,-99.99,VWS V14.01,2013-03-17 07:49:00,
2013-03-17 03:55:00,33.1,14.6,29.47,NW,326,3.6,4.9,46,-99.99,,---,-99.99,VWS V14.01,2013-03-17 07:55:00,
2013-03-17 04:00:00,33.1,14.1,29.47,NW,326,0.0,0.0,45,-99.99,,---,-99.99,VWS V14.01,2013-03-17 08:00:00,
2013-03-17 04:05:00,32.9,13.9,29.47,NW,326,4.0,5.4,45,-99.99,,---,-99.99,VWS V14.01,2013-03-17 08:05:00,
2013-03-17 04:10:00,32.9,13.4,29.47,NW,326,0.0,0.0,44,-99.99,,---,-99.99,VWS V14.01,2013-03-17 08:10:00,
2013-03-17 04:16:00,32.9,13.4,29.47,NW,326,0.0,4.5,44,-99.99,,---,-99.99,VWS V14.01,2013-03-17 08:16:00,
2013-03-17 04:22:00,32.7,13.2,29.47,NW,326,0.0,0.0,44,-99.99,,---,-99.99,VWS V14.01,2013-03-17 08:22:00,
2013-03-17 04:27:00,32.7,13.2,29.47,NW,326,0.0,0.0,44,-99.99,,---,-99.99,VWS V14.01,2013-03-17 08:27:00,
2013-03-17 04:32:00,32.7,13.2,29.44,NW,326,0.0,0.0,44,-99.99,,---,-99.99,VWS V14.01,2013-03-17 08:32:00,
2013-03-17 04:37:00,32.9,13.9,29.44,NW,326,0.0,0.0,45,-99.99,,---,-99.99,VWS V14.01,2013-03-17 08:37:00,
2013-03-17 04:42:00,32.9,13.9,29.44,NW,326,0.0,0.0,45,-99.99,,---,-99.99,VWS V14.01,2013-03-17 08:42:00,
2013-03-17 04:48:00,33.1,14.1,29.47,NW,326,0.0,0.0,45,-99.99,,---,-99.99,VWS V14.01,2013-03-17 08:48:00,
2013-03-17 04:53:00,33.1,14.1,29.47,NW,326,0.0,0.0,45,-99.99,,---,-99.99,VWS V14.01,2013-03-17 08:53:00,
2013-03-17 04:58:00,33.1,14.1,29.47,NW,326,0.0,0.0,45,-99.99,,---,-99.99,VWS V14.01,2013-03-17 08:58:00,
2013-03-17 05:03:00,33.1,14.1,29.47,NW,326,0.0,0.0,45,-99.99,,---,-99.99,VWS V14.01,2013-03-17 09:03:00,
2013-03-17 05:08:00,33.1,14.1,29.47,NW,326,0.0,0.0,45,-99.99,,---,-99.99,VWS V14.01,2013-03-17 09:08:00,
2013-03-17 05:13:00,33.1,14.1,29.47,NW,326,0.0,0.0,45,-99.99,,---,-99.99,VWS V14.01,2013-03-17 09:13:00,
2013-03-17 05:18:00,33.1,14.1,29.47,NW,326,0.0,0.0,45,-99.99,,---,-99.99,VWS V14.01,2013-03-17 09:18:00,
2013-03-17 05:23:00,33.1,14.1,29.47,NW,326,0.0,0.0,45,-99.99,,---,-99.99,VWS V14.01,2013-03-17 09:23:00,
2013-03-17 05:28:00,33.1,14.1,29.47,NW,326,0.0,0.0,45,-99.99,,---,-99.99,VWS V14.01,2013-03-17 09:28:00,
2013-03-17 05:33:00,33.1,14.1,29.47,NW,326,0.0,0.0,45,-99.99,,---,-99.99,VWS V14.01,2013-03-17 09:33:00,
2013-03-17 05:39:00,33.1,13.6,29.47,NW,326,0.0,0.0,44,-99.99,,---,-99.99,VWS V14.01,2013-03-17 09:39:00,
2013-03-17 05:44:00,33.1,13.6,29.47,NW,326,0.0,0.0,44,-99.99,,---,-99.99,VWS V14.01,2013-03-17 09:44:00,
2013-03-17 05:49:00,32.9,13.4,29.47,NW,326,0.0,0.0,44,-99.99,,---,-99.99,VWS V14.01,2013-03-17 09:49:00,
2013-03-17 05:54:00,32.9,13.4,29.47,NW,326,0.0,0.0,44,-99.99,,---,-99.99,VWS V14.01,2013-03-17 09:54:00,
2013-03-17 05:59:00,32.9,13.4,29.50,NW,326,0.0,0.0,44,-99.99,,---,-99.99,VWS V14.01,2013-03-17 09:59:00,
2013-03-17 06:04:00,32.9,13.4,29.50,NW,326,0.0,0.0,44,-99.99,,---,-99.99,VWS V14.01,2013-03-17 10:04:00,
2013-03-17 06:27:00,33.1,14.1,29.50,NW,326,0.0,0.0,45,-99.99,,---,-99.99,VWS V14.01,2013-03-17 10:27:00,
2013-03-17 06:32:00,33.1,14.1,29.53,NW,326,0.0,0.0,45,-99.99,,---,-99.99,VWS V14.01,2013-03-17 10:32:00,
2013-03-17 06:37:00,32.9,13.9,29.53,NW,326,0.0,0.0,45,-99.99,,---,-99.99,VWS V14.01,2013-03-17 10:37:00,
2013-03-17 06:42:00,32.9,14.4,29.53,NW,326,0.0,0.0,46,-99.99,,---,-99.99,VWS V14.01,2013-03-17 10:42:00,
2013-03-17 06:48:00,32.9,14.9,29.53,NW,326,0.0,0.0,47,-99.99,,---,-99.99,VWS V14.01,2013-03-17 10:48:00,
2013-03-17 06:53:00,32.9,14.9,29.53,NW,326,0.0,0.0,47,-99.99,,---,-99.99,VWS V14.01,2013-03-17 10:53:00,
2013-03-17 06:58:00,33.1,15.5,29.53,NW,326,0.0,0.0,48,-99.99,,---,-99.99,VWS V14.01,2013-03-17 10:58:00,
2013-03-17 07:03:00,33.1,16.0,29.53,NW,326,0.0,0.0,49,-99.99,,---,-99.99,VWS V14.01,2013-03-17 11:03:00,
2013-03-17 07:08:00,33.1,16.0,29.53,NW,326,0.0,0.0,49,-99.99,,---,-99.99,VWS V14.01,2013-03-17 11:08:00,
2013-03-17 07:14:00,33.1,16.5,29.53,NW,326,0.0,0.0,50,-99.99,,---,-99.99,VWS V14.01,2013-03-17 11:14:00,
2013-03-17 07:19:00,33.1,16.5,29.53,NW,326,0.0,0.0,50,-99.99,,---,-99.99,VWS V14.01,2013-03-17 11:19:00,
2013-03-17 07:24:00,33.1,16.5,29.53,NW,326,0.0,0.0,50,-99.99,,---,-99.99,VWS V14.01,2013-03-17 11:24:00,
2013-03-17 07:29:00,33.1,16.5,29.56,NW,326,0.0,0.0,50,-99.99,,---,-99.99,VWS V14.01,2013-03-17 11:29:00,
2013-03-17 07:34:00,33.1,16.5,29.56,NW,326,0.0,0.0,50,-99.99,,---,-99.99,VWS V14.01,2013-03-17 11:34:00,
2013-03-17 07:39:00,33.1,16.5,29.56,NW,326,0.0,0.0,50,-99.99,,---,-99.99,VWS V14.01,2013-03-17 11:39:00,
2013-03-17 07:44:00,33.1,16.9,29.56,NW,326,0.0,0.0,51,-99.99,,---,-99.99,VWS V14.01,2013-03-17 11:44:00,
2013-03-17 07:50:00,33.1,16.9,29.56,NW,326,0.0,0.0,51,-99.99,,---,-99.99,VWS V14.01,2013-03-17 11:50:00,
2013-03-17 07:55:00,33.1,16.9,29.56,NW,326,0.0,0.0,51,-99.99,,---,-99.99,VWS V14.01,2013-03-17 11:55:00,
2013-03-17 08:03:00,33.1,16.9,29.59,NW,326,0.0,0.0,51,-99.99,,---,-99.99,VWS V14.01,2013-03-17 12:03:00,
2013-03-17 08:09:00,33.3,17.1,29.59,NW,326,0.0,0.0,51,-99.99,,---,-99.99,VWS V14.01,2013-03-17 12:09:00,
2013-03-17 08:14:00,33.3,17.1,29.59,NW,326,0.0,0.0,51,-99.99,,---,-99.99,VWS V14.01,2013-03-17 12:14:00,
2013-03-17 08:19:00,33.3,17.1,29.59,NW,326,0.0,0.0,51,-99.99,,---,-99.99,VWS V14.01,2013-03-17 12:19:00,
2013-03-17 08:24:00,33.3,17.5,29.59,NW,326,0.0,0.0,52,-99.99,,---,-99.99,VWS V14.01,2013-03-17 12:24:00,
2013-03-17 08:30:00,33.3,17.5,29.59,NW,326,0.0,0.0,52,-99.99,,---,-99.99,VWS V14.01,2013-03-17 12:30:00,
2013-03-17 08:35:00,33.3,17.5,29.59,NW,326,0.0,0.0,52,-99.99,,---,-99.99,VWS V14.01,2013-03-17 12:35:00,
2013-03-17 08:40:00,33.3,17.5,29.59,NW,326,0.0,0.0,52,-99.99,,---,-99.99,VWS V14.01,2013-03-17 12:40:00,
2013-03-17 08:45:00,33.3,16.6,29.62,NW,326,0.0,0.0,50,-99.99,,---,-99.99,VWS V14.01,2013-03-17 12:45:00,
2013-03-17 08:51:00,33.3,15.7,29.62,NW,326,0.0,0.0,48,-99.99,,---,-99.99,VWS V14.01,2013-03-17 12:51:00,
2013-03-17 08:56:00,33.3,15.7,29.62,NW,326,2.7,4.0,48,-99.99,,---,-99.99,VWS V14.01,2013-03-17 12:56:00,
2013-03-17 09:01:00,33.3,14.7,29.62,NW,326,0.0,0.0,46,-99.99,,---,-99.99,VWS V14.01,2013-03-17 13:01:00,
2013-03-17 09:06:00,33.1,13.0,29.62,NW,326,3.6,3.6,43,-99.99,,---,-99.99,VWS V14.01,2013-03-17 13:06:00,
2013-03-17 09:12:00,32.5,4.6,29.62,NW,326,2.7,2.7,30,-99.99,,---,-99.99,VWS V14.01,2013-03-17 13:12:00,
2013-03-17 09:17:00,32.4,-1.3,29.62,NW,326,2.7,2.7,23,-99.99,,---,-99.99,VWS V14.01,2013-03-17 13:17:00,
2013-03-17 09:23:00,32.5,-1.1,29.62,NW,326,3.1,3.6,23,-99.99,,---,-99.99,VWS V14.01,2013-03-17 13:23:00,
2013-03-17 09:28:00,32.5,-1.1,29.62,NW,326,0.0,0.0,23,-99.99,,---,-99.99,VWS V14.01,2013-03-17 13:28:00,
2013-03-17 09:33:00,32.7,3.2,29.62,NW,326,0.0,0.0,28,-99.99,,---,-99.99,VWS V14.01,2013-03-17 13:33:00,
2013-03-17 09:38:00,32.7,-1.0,29.62,NW,326,0.0,0.0,23,-99.99,,---,-99.99,VWS V14.01,2013-03-17 13:38:00,
2013-03-17 09:44:00,32.7,-1.0,29.62,NW,326,0.0,0.0,23,-99.99,,---,-99.99,VWS V14.01,2013-03-17 13:44:00,
2013-03-17 09:49:00,32.7,3.2,29.62,NNW,327,0.0,0.0,28,-99.99,,---,-99.99,VWS V14.01,2013-03-17 13:49:00,
2013-03-17 09:54:00,32.7,0.8,29.62,NNW,327,0.0,2.7,25,-99.99,,---,-99.99,VWS V14.01,2013-03-17 13:54:00,
2013-03-17 09:59:00,32.7,-3.9,29.62,NNW,328,0.0,2.7,20,-99.99,,---,-99.99,VWS V14.01,2013-03-17 13:59:00,
2013-03-17 10:04:00,32.7,-3.9,29.62,North,353,0.0,0.0,20,-99.99,,---,-99.99,VWS V14.01,2013-03-17 14:04:00,
2013-03-17 10:09:00,32.7,-3.9,29.62,North,353,0.0,0.0,20,-99.99,,---,-99.99,VWS V14.01,2013-03-17 14:09:00,
2013-03-17 10:14:00,32.9,-3.8,29.62,North,0,0.0,0.0,20,-99.99,,---,-99.99,VWS V14.01,2013-03-17 14:14:00,
2013-03-17 10:19:00,32.9,-3.8,29.62,ENE,57,0.0,0.0,20,-99.99,,---,-99.99,VWS V14.01,2013-03-17 14:19:00,
2013-03-17 10:24:00,32.7,-3.9,29.62,NNE,31,0.0,0.0,20,-99.99,,---,-99.99,VWS V14.01,2013-03-17 14:24:00,
2013-03-17 10:35:00,32.5,-4.1,29.62,NNE,31,0.0,0.0,20,-99.99,,---,-99.99,VWS V14.01,2013-03-17 14:35:00,
2013-03-17 10:40:00,32.5,-4.1,29.62,NNE,31,0.0,0.0,20,-99.99,,---,-99.99,VWS V14.01,2013-03-17 14:40:00,
2013-03-17 10:45:00,32.5,-4.1,29.62,NNE,30,0.0,0.0,20,-99.99,,---,-99.99,VWS V14.01,2013-03-17 14:45:00,
2013-03-17 10:51:00,32.5,-6.2,29.62,NNE,28,0.0,0.0,18,-99.99,,---,-99.99,VWS V14.01,2013-03-17 14:51:00,
2013-03-17 10:56:00,32.4,-6.4,29.62,NNE,28,0.0,0.0,18,-99.99,,---,-99.99,VWS V14.01,2013-03-17 14:56:00,
2013-03-17 11:01:00,32.5,-6.2,29.65,NNW,340,0.0,0.0,18,-99.99,,---,-99.99,VWS V14.01,2013-03-17 15:01:00,
2013-03-17 11:06:00,32.5,-6.2,29.65,NNW,340,0.0,0.0,18,-99.99,,---,-99.99,VWS V14.01,2013-03-17 15:06:00,
2013-03-17 11:12:00,32.5,-6.2,29.65,NNW,340,0.0,0.0,18,-99.99,,---,-99.99,VWS V14.01,2013-03-17 15:12:00,
2013-03-17 11:17:00,32.5,-6.2,29.65,NNW,340,0.0,0.0,18,-99.99,,---,-99.99,VWS V14.01,2013-03-17 15:17:00,
2013-03-17 11:23:00,32.7,-6.1,29.65,NNW,340,0.0,0.0,18,-99.99,,---,-99.99,VWS V14.01,2013-03-17 15:23:00,
2013-03-17 11:28:00,32.7,-6.1,29.65,NNW,340,0.0,0.0,18,-99.99,,---,-99.99,VWS V14.01,2013-03-17 15:28:00,
2013-03-17 11:33:00,32.7,-6.1,29.65,NNW,340,0.0,0.0,18,-99.99,,---,-99.99,VWS V14.01,2013-03-17 15:33:00,
2013-03-17 11:38:00,32.7,-6.1,29.65,NNW,340,0.0,0.0,18,-99.99,,---,-99.99,VWS V14.01,2013-03-17 15:38:00,
2013-03-17 11:43:00,32.7,-6.1,29.65,NNW,341,0.0,0.0,18,-99.99,,---,-99.99,VWS V14.01,2013-03-17 15:43:00,
2013-03-17 11:48:00,32.7,-6.1,29.65,NNW,342,0.0,0.0,18,-99.99,,---,-99.99,VWS V14.01,2013-03-17 15:48:00,
2013-03-17 11:53:00,33.4,-5.5,29.65,NW,308,0.0,0.0,18,-99.99,,---,-99.99,VWS V14.01,2013-03-17 15:53:00,
2013-03-17 11:59:00,33.4,-5.5,29.65,NW,311,0.0,0.0,18,-99.99,,---,-99.99,VWS V14.01,2013-03-17 15:59:00,
2013-03-17 12:04:00,33.3,-5.7,29.65,NNW,334,0.0,0.0,18,-99.99,,---,-99.99,VWS V14.01,2013-03-17 16:04:00,
2013-03-17 12:09:00,33.4,-5.5,29.65,NNW,333,0.0,0.0,18,-99.99,,---,-99.99,VWS V14.01,2013-03-17 16:09:00,
2013-03-17 12:14:00,33.6,-5.3,29.65,NW,320,0.0,0.0,18,-99.99,,---,-99.99,VWS V14.01,2013-03-17 16:14:00,
2013-03-17 12:19:00,33.6,-5.3,29.65,North,4,0.0,0.0,18,-99.99,,---,-99.99,VWS V14.01,2013-03-17 16:19:00,
2013-03-17 12:24:00,33.8,-6.4,29.65,NW,321,5.4,7.6,17,-99.99,,---,-99.99,VWS V14.01,2013-03-17 16:24:00,
2013-03-17 12:30:00,33.8,-6.4,29.65,North,350,6.3,10.1,17,-99.99,,---,-99.99,VWS V14.01,2013-03-17 16:30:00,
2013-03-17 12:35:00,34.0,-6.2,29.65,North,350,6.3,6.3,17,-99.99,,---,-99.99,VWS V14.01,2013-03-17 16:35:00,
2013-03-17 12:40:00,34.0,-6.2,29.65,North,350,6.3,6.3,17,-99.99,,---,-99.99,VWS V14.01,2013-03-17 16:40:00,
2013-03-17 12:45:00,34.3,-5.9,29.65,North,350,6.3,6.3,17,-99.99,,---,-99.99,VWS V14.01,2013-03-17 16:45:00,
2013-03-17 12:50:00,34.5,-5.8,29.65,NW,309,7.6,10.5,17,-99.99,,---,-99.99,VWS V14.01,2013-03-17 16:50:00,
2013-03-17 12:56:00,34.2,-6.1,29.65,NW,313,4.5,6.3,17,-99.99,,---,-99.99,VWS V14.01,2013-03-17 16:56:00,
2013-03-17 13:01:00,34.2,-6.1,29.65,West,271,7.6,7.6,17,-99.99,,---,-99.99,VWS V14.01,2013-03-17 17:01:00,
2013-03-17 13:06:00,34.3,-5.9,29.65,NNW,338,5.8,9.2,17,-99.99,,---,-99.99,VWS V14.01,2013-03-17 17:06:00,
2013-03-17 13:12:00,34.5,-5.8,29.65,NNW,343,0.0,5.8,17,-99.99,,---,-99.99,VWS V14.01,2013-03-17 17:12:00,
2013-03-17 13:17:00,34.9,-5.5,29.65,NNW,333,4.0,6.7,17,-99.99,,---,-99.99,VWS V14.01,2013-03-17 17:17:00,
2013-03-17 13:22:00,34.9,-5.5,29.65,North,357,8.3,11.0,17,-99.99,,---,-99.99,VWS V14.01,2013-03-17 17:22:00,
2013-03-17 13:27:00,35.1,-5.3,29.65,NNW,327,7.2,8.7,17,-99.99,,---,-99.99,VWS V14.01,2013-03-17 17:27:00,
2013-03-17 13:33:00,35.1,-5.3,29.65,NW,314,0.0,0.0,17,-99.99,,---,-99.99,VWS V14.01,2013-03-17 17:33:00,
2013-03-17 13:38:00,35.6,-4.9,29.65,North,5,3.1,3.1,17,-99.99,,---,-99.99,VWS V14.01,2013-03-17 17:38:00,
2013-03-17 13:43:00,35.6,-4.9,29.65,North,0,3.1,5.4,17,-99.99,,---,-99.99,VWS V14.01,2013-03-17 17:43:00,
2013-03-17 13:48:00,35.6,-4.9,29.65,NW,315,7.6,7.6,17,-99.99,,---,-99.99,VWS V14.01,2013-03-17 17:48:00,
2013-03-17 13:53:00,35.8,-4.8,29.65,NW,315,7.6,7.6,17,-99.99,,---,-99.99,VWS V14.01,2013-03-17 17:53:00,
2013-03-17 13:58:00,36.1,-4.5,29.65,NW,315,7.6,7.6,17,-99.99,,---,-99.99,VWS V14.01,2013-03-17 17:58:00,
2013-03-17 14:04:00,36.0,-4.6,29.65,NW,315,7.6,7.6,17,-99.99,,---,-99.99,VWS V14.01,2013-03-17 18:04:00,
2013-03-17 14:09:00,36.1,-4.5,29.65,NW,315,7.6,7.6,17,-99.99,,---,-99.99,VWS V14.01,2013-03-17 18:09:00,
2013-03-17 14:14:00,36.1,-4.5,29.65,NW,315,7.6,7.6,17,-99.99,,---,-99.99,VWS V14.01,2013-03-17 18:14:00,
2013-03-17 14:19:00,36.3,-4.3,29.65,NW,315,7.6,7.6,17,-99.99,,---,-99.99,VWS V14.01,2013-03-17 18:19:00,
2013-03-17 14:24:00,36.5,-4.2,29.65,NW,315,7.6,7.6,17,-99.99,,---,-99.99,VWS V14.01,2013-03-17 18:24:00,
2013-03-17 14:29:00,36.9,-3.9,29.65,NW,315,7.6,7.6,17,-99.99,,---,-99.99,VWS V14.01,2013-03-17 18:29:00,
2013-03-17 14:34:00,36.7,-4.0,29.65,NW,315,7.6,7.6,17,-99.99,,---,-99.99,VWS V14.01,2013-03-17 18:34:00,
2013-03-17 14:39:00,36.7,-4.0,29.65,NW,315,7.6,7.6,17,-99.99,,---,-99.99,VWS V14.01,2013-03-17 18:39:00,
2013-03-17 14:45:00,36.9,-3.9,29.65,NW,315,7.6,7.6,17,-99.99,,---,-99.99,VWS V14.01,2013-03-17 18:45:00,
2013-03-17 14:50:00,37.4,-4.7,29.65,NW,315,7.6,7.6,16,-99.99,,---,-99.99,VWS V14.01,2013-03-17 18:50:00,
2013-03-17 14:55:00,37.2,-3.6,29.65,NW,315,7.6,7.6,17,-99.99,,---,-99.99,VWS V14.01,2013-03-17 18:55:00,
2013-03-17 15:00:00,37.6,-4.5,29.65,NW,315,7.6,7.6,16,-99.99,,---,-99.99,VWS V14.01,2013-03-17 19:00:00,
2013-03-17 15:05:00,37.4,-4.7,29.65,NW,315,7.6,7.6,16,-99.99,,---,-99.99,VWS V14.01,2013-03-17 19:05:00,
2013-03-17 15:11:00,37.6,-4.5,29.65,NNE,12,5.8,5.8,16,-99.99,,---,-99.99,VWS V14.01,2013-03-17 19:11:00,
2013-03-17 15:16:00,37.4,-4.7,29.65,NNW,330,11.0,11.4,16,-99.99,,---,-99.99,VWS V14.01,2013-03-17 19:16:00,
2013-03-17 15:21:00,37.2,-3.6,29.65,NNW,337,3.6,4.0,17,-99.99,,---,-99.99,VWS V14.01,2013-03-17 19:21:00,
2013-03-17 15:26:00,37.2,-3.6,29.65,NNE,12,0.0,0.0,17,-99.99,,---,-99.99,VWS V14.01,2013-03-17 19:26:00,
2013-03-17 15:31:00,37.2,-3.6,29.65,NNE,12,0.0,0.0,17,-99.99,,---,-99.99,VWS V14.01,2013-03-17 19:31:00,
2013-03-17 15:37:00,37.4,-4.7,29.65,NNE,12,0.0,0.0,16,-99.99,,---,-99.99,VWS V14.01,2013-03-17 19:37:00,
2013-03-17 15:42:00,37.0,-3.7,29.65,NNE,12,0.0,0.0,17,-99.99,,---,-99.99,VWS V14.01,2013-03-17 19:42:00,
2013-03-17 15:47:00,36.7,-4.0,29.65,NNE,12,0.0,0.0,17,-99.99,,---,-99.99,VWS V14.01,2013-03-17 19:47:00,
2013-03-17 15:52:00,36.7,-4.0,29.65,NNE,12,0.0,0.0,17,-99.99,,---,-99.99,VWS V14.01,2013-03-17 19:52:00,
2013-03-17 15:57:00,36.7,-4.0,29.65,NW,319,2.7,5.8,17,-99.99,,---,-99.99,VWS V14.01,2013-03-17 19:57:00,
2013-03-17 16:02:00,36.7,-4.0,29.65,North,357,2.7,4.0,17,-99.99,,---,-99.99,VWS V14.01,2013-03-17 20:02:00,
2013-03-17 16:07:00,36.5,-4.2,29.65,NE,41,4.0,4.0,17,-99.99,,---,-99.99,VWS V14.01,2013-03-17 20:07:00,
2013-03-17 16:13:00,36.7,-4.0,29.65,NE,54,0.0,0.0,17,-99.99,,---,-99.99,VWS V14.01,2013-03-17 20:13:00,
2013-03-17 16:18:00,36.9,-3.9,29.65,NNW,338,2.2,4.0,17,-99.99,,---,-99.99,VWS V14.01,2013-03-17 20:18:00,
2013-03-17 16:23:00,36.9,-3.9,29.65,NNW,343,4.0,4.9,17,-99.99,,---,-99.99,VWS V14.01,2013-03-17 20:23:00,
2013-03-17 16:28:00,36.7,-4.0,29.65,North,1,0.0,0.0,17,-99.99,,---,-99.99,VWS V14.01,2013-03-17 20:28:00,
2013-03-17 16:33:00,36.5,-4.2,29.65,NNE,22,5.4,5.4,17,-99.99,,---,-99.99,VWS V14.01,2013-03-17 20:33:00,
2013-03-17 16:38:00,36.5,-4.2,29.65,NNW,338,0.0,2.7,17,-99.99,,---,-99.99,VWS V14.01,2013-03-17 20:38:00,
2013-03-17 16:44:00,36.7,-4.0,29.65,NNW,332,3.6,3.6,17,-99.99,,---,-99.99,VWS V14.01,2013-03-17 20:44:00,
2013-03-17 16:49:00,36.7,-4.0,29.65,NNW,340,6.3,8.7,17,-99.99,,---,-99.99,VWS V14.01,2013-03-17 20:49:00,
2013-03-17 16:54:00,36.5,-4.2,29.65,North,9,4.9,4.9,17,-99.99,,---,-99.99,VWS V14.01,2013-03-17 20:54:00,
2013-03-17 16:59:00,36.7,-4.0,29.65,NNW,332,8.1,10.1,17,-99.99,,---,-99.99,VWS V14.01,2013-03-17 20:59:00,
2013-03-17 17:04:00,36.7,-4.0,29.65,NW,325,8.1,8.1,17,-99.99,,---,-99.99,VWS V14.01,2013-03-17 21:04:00,
2013-03-17 17:10:00,36.7,-4.0,29.65,NW,313,8.7,8.7,17,-99.99,,---,-99.99,VWS V14.01,2013-03-17 21:10:00,
2013-03-17 17:15:00,36.7,-4.0,29.65,NW,323,8.3,10.5,17,-99.99,,---,-99.99,VWS V14.01,2013-03-17 21:15:00,
2013-03-17 17:20:00,36.5,-4.2,29.65,NW,318,5.4,7.6,17,-99.99,,---,-99.99,VWS V14.01,2013-03-17 21:20:00,
2013-03-17 17:25:00,36.5,-4.2,29.65,NNE,14,0.0,2.7,17,-99.99,,---,-99.99,VWS V14.01,2013-03-17 21:25:00,
2013-03-17 17:30:00,36.3,-4.3,29.65,NNW,345,3.1,3.6,17,-99.99,,---,-99.99,VWS V14.01,2013-03-17 21:30:00,
2013-03-17 17:35:00,36.3,-4.3,29.65,North,357,2.7,2.7,17,-99.99,,---,-99.99,VWS V14.01,2013-03-17 21:35:00,
2013-03-17 17:40:00,36.3,-4.3,29.65,North,3,2.7,2.7,17,-99.99,,---,-99.99,VWS V14.01,2013-03-17 21:40:00,
2013-03-17 17:45:00,36.3,-4.3,29.68,NNE,12,3.1,3.1,17,-99.99,,---,-99.99,VWS V14.01,2013-03-17 21:45:00,
2013-03-17 17:50:00,36.1,-4.5,29.68,NNW,329,3.6,3.6,17,-99.99,,---,-99.99,VWS V14.01,2013-03-17 21:50:00,
2013-03-17 17:55:00,36.1,-4.5,29.68,NNW,336,4.5,4.5,17,-99.99,,---,-99.99,VWS V14.01,2013-03-17 21:55:00,
2013-03-17 18:01:00,36.3,-4.3,29.68,North,0,2.7,4.0,17,-99.99,,---,-99.99,VWS V14.01,2013-03-17 22:01:00,
2013-03-17 18:06:00,36.3,-4.3,29.68,North,0,5.8,5.8,17,-99.99,,---,-99.99,VWS V14.01,2013-03-17 22:06:00,
2013-03-17 18:11:00,36.1,-4.5,29.68,NNW,335,3.6,4.0,17,-99.99,,---,-99.99,VWS V14.01,2013-03-17 22:11:00,
2013-03-17 18:16:00,36.1,-4.5,29.68,NNE,24,0.0,0.0,17,-99.99,,---,-99.99,VWS V14.01,2013-03-17 22:16:00,
2013-03-17 18:22:00,36.1,-4.5,29.68,NNW,348,2.7,3.1,17,-99.99,,---,-99.99,VWS V14.01,2013-03-17 22:22:00,
2013-03-17 18:27:00,36.0,-4.6,29.68,North,357,2.7,6.3,17,-99.99,,---,-99.99,VWS V14.01,2013-03-17 22:27:00,
2013-03-17 18:32:00,36.0,-4.6,29.68,North,353,2.2,2.2,17,-99.99,,---,-99.99,VWS V14.01,2013-03-17 22:32:00,
2013-03-17 18:37:00,36.0,-4.6,29.68,NNW,329,0.0,2.7,17,-99.99,,---,-99.99,VWS V14.01,2013-03-17 22:37:00,
2013-03-17 18:43:00,35.8,-4.8,29.71,North,353,4.9,4.9,17,-99.99,,---,-99.99,VWS V14.01,2013-03-17 22:43:00,
2013-03-17 18:48:00,35.8,-4.8,29.71,North,349,0.0,0.0,17,-99.99,,---,-99.99,VWS V14.01,2013-03-17 22:48:00,
2013-03-17 18:53:00,35.6,-4.9,29.71,NW,318,3.6,4.9,17,-99.99,,---,-99.99,VWS V14.01,2013-03-17 22:53:00,
2013-03-17 18:58:00,35.6,-4.9,29.71,North,353,0.0,0.0,17,-99.99,,---,-99.99,VWS V14.01,2013-03-17 22:58:00,
2013-03-17 19:03:00,35.6,-4.9,29.71,NW,326,4.0,4.9,17,-99.99,,---,-99.99,VWS V14.01,2013-03-17 23:03:00,
2013-03-17 19:08:00,35.4,-5.1,29.71,NNW,342,3.6,3.6,17,-99.99,,---,-99.99,VWS V14.01,2013-03-17 23:08:00,
2013-03-17 19:13:00,35.4,-5.1,29.71,NNW,327,0.0,0.0,17,-99.99,,---,-99.99,VWS V14.01,2013-03-17 23:13:00,
2013-03-17 19:18:00,35.2,-5.2,29.71,NNW,345,0.0,0.0,17,-99.99,,---,-99.99,VWS V14.01,2013-03-17 23:18:00,
2013-03-17 19:24:00,35.2,-5.2,29.71,NNW,327,0.0,0.0,17,-99.99,,---,-99.99,VWS V14.01,2013-03-17 23:24:00,
2013-03-17 19:29:00,35.1,-5.3,29.71,NNW,329,0.0,0.0,17,-99.99,,---,-99.99,VWS V14.01,2013-03-17 23:29:00,
2013-03-17 19:34:00,34.9,-5.5,29.71,NNW,329,0.0,0.0,17,-99.99,,---,-99.99,VWS V14.01,2013-03-17 23:34:00,
2013-03-17 19:39:00,34.9,-5.5,29.71,NNW,329,0.0,0.0,17,-99.99,,---,-99.99,VWS V14.01,2013-03-17 23:39:00,
2013-03-17 19:44:00,34.7,-5.6,29.71,NNW,334,0.0,0.0,17,-99.99,,---,-99.99,VWS V14.01,2013-03-17 23:44:00,
2013-03-17 19:49:00,34.5,-5.8,29.71,NNW,329,0.0,0.0,17,-99.99,,---,-99.99,VWS V14.01,2013-03-17 23:49:00,
2013-03-17 19:54:00,34.3,-5.9,29.71,NNW,328,0.0,0.0,17,-99.99,,---,-99.99,VWS V14.01,2013-03-17 23:54:00,
2013-03-17 19:59:00,34.3,-5.9,29.71,NNW,328,0.0,0.0,17,-99.99,,---,-99.99,VWS V14.01,2013-03-17 23:59:00,
2013-03-17 20:05:00,34.3,-5.9,29.71,NNW,328,0.0,0.0,17,-99.99,,---,-99.99,VWS V14.01,2013-03-18 00:05:00,
2013-03-17 20:10:00,34.3,-5.9,29.71,NNW,328,0.0,0.0,17,-99.99,,---,-99.99,VWS V14.01,2013-03-18 00:10:00,
2013-03-17 20:15:00,34.3,-5.9,29.71,NNW,328,0.0,0.0,17,-99.99,,---,-99.99,VWS V14.01,2013-03-18 00:15:00,
2013-03-17 20:20:00,34.3,-5.9,29.71,NNW,328,0.0,0.0,17,-99.99,,---,-99.99,VWS V14.01,2013-03-18 00:20:00,
2013-03-17 20:26:00,34.3,-5.9,29.71,NNW,328,0.0,0.0,17,-99.99,,---,-99.99,VWS V14.01,2013-03-18 00:26:00,
2013-03-17 20:31:00,34.3,-5.9,29.71,NNW,328,0.0,0.0,17,-99.99,,---,-99.99,VWS V14.01,2013-03-18 00:31:00,
2013-03-17 20:36:00,34.0,-6.2,29.71,NNW,328,0.0,0.0,17,-99.99,,---,-99.99,VWS V14.01,2013-03-18 00:36:00,
2013-03-17 20:42:00,34.0,-6.2,29.71,NNW,328,0.0,0.0,17,-99.99,,---,-99.99,VWS V14.01,2013-03-18 00:42:00,
2013-03-17 20:47:00,33.8,-6.4,29.74,NNW,328,0.0,0.0,17,-99.99,,---,-99.99,VWS V14.01,2013-03-18 00:47:00,
2013-03-17 20:52:00,33.8,-6.4,29.74,NNW,328,0.0,0.0,17,-99.99,,---,-99.99,VWS V14.01,2013-03-18 00:52:00,
2013-03-17 20:57:00,33.8,-6.4,29.74,NNW,328,0.0,0.0,17,-99.99,,---,-99.99,VWS V14.01,2013-03-18 00:57:00,
2013-03-17 21:02:00,33.6,-5.3,29.74,NNW,329,0.0,0.0,18,-99.99,,---,-99.99,VWS V14.01,2013-03-18 01:02:00,
2013-03-17 21:26:00,33.4,-5.5,29.74,NNW,328,0.0,0.0,18,-99.99,,---,-99.99,VWS V14.01,2013-03-18 01:26:00,
2013-03-17 21:31:00,33.4,-5.5,29.74,NNW,328,0.0,0.0,18,-99.99,,---,-99.99,VWS V14.01,2013-03-18 01:31:00,
2013-03-17 21:37:00,33.4,-5.5,29.74,NNW,328,0.0,0.0,18,-99.99,,---,-99.99,VWS V14.01,2013-03-18 01:37:00,
2013-03-17 21:42:00,33.4,-5.5,29.74,NNW,328,0.0,0.0,18,-99.99,,---,-99.99,VWS V14.01,2013-03-18 01:42:00,
2013-03-17 21:47:00,33.3,-5.7,29.77,NNW,328,0.0,0.0,18,-99.99,,---,-99.99,VWS V14.01,2013-03-18 01:47:00,
2013-03-17 21:52:00,33.3,-5.7,29.77,NNW,329,0.0,0.0,18,-99.99,,---,-99.99,VWS V14.01,2013-03-18 01:52:00,
2013-03-17 21:57:00,33.3,-5.7,29.77,NNW,328,0.0,0.0,18,-99.99,,---,-99.99,VWS V14.01,2013-03-18 01:57:00,
2013-03-17 22:03:00,33.3,-5.7,29.74,NNW,328,0.0,0.0,18,-99.99,,---,-99.99,VWS V14.01,2013-03-18 02:03:00,
2013-03-17 22:08:00,33.1,-5.8,29.74,NNW,328,0.0,0.0,18,-99.99,,---,-99.99,VWS V14.01,2013-03-18 02:08:00,
2013-03-17 22:13:00,33.1,-5.8,29.74,NNW,328,0.0,0.0,18,-99.99,,---,-99.99,VWS V14.01,2013-03-18 02:13:00,
2013-03-17 22:18:00,32.7,-6.1,29.74,NNW,328,0.0,0.0,18,-99.99,,---,-99.99,VWS V14.01,2013-03-18 02:18:00,
2013-03-17 22:23:00,32.7,-6.1,29.74,NNW,328,0.0,0.0,18,-99.99,,---,-99.99,VWS V14.01,2013-03-18 02:23:00,
2013-03-17 22:28:00,32.5,-6.2,29.74,NNW,328,0.0,0.0,18,-99.99,,---,-99.99,VWS V14.01,2013-03-18 02:28:00,
2013-03-17 22:34:00,32.5,-6.2,29.74,NNW,328,0.0,0.0,18,-99.99,,---,-99.99,VWS V14.01,2013-03-18 02:34:00,
2013-03-17 22:39:00,32.7,-6.1,29.74,NNW,328,0.0,0.0,18,-99.99,,---,-99.99,VWS V14.01,2013-03-18 02:39:00,
2013-03-17 22:44:00,32.9,-5.9,29.77,NNW,328,0.0,0.0,18,-99.99,,---,-99.99,VWS V14.01,2013-03-18 02:44:00,
2013-03-17 22:49:00,32.9,-5.9,29.77,NE,44,0.0,0.0,18,-99.99,,---,-99.99,VWS V14.01,2013-03-18 02:49:00,
2013-03-17 22:54:00,32.9,-5.9,29.77,NE,44,0.0,0.0,18,-99.99,,---,-99.99,VWS V14.01,2013-03-18 02:54:00,
2013-03-17 23:00:00,32.9,-5.9,29.77,NE,44,0.0,0.0,18,-99.99,,---,-99.99,VWS V14.01,2013-03-18 03:00:00,
2013-03-17 23:05:00,32.7,-6.1,29.77,NE,44,0.0,0.0,18,-99.99,,---,-99.99,VWS V14.01,2013-03-18 03:05:00,
2013-03-17 23:10:00,32.7,-6.1,29.77,NE,44,0.0,0.0,18,-99.99,,---,-99.99,VWS V14.01,2013-03-18 03:10:00,
2013-03-17 23:15:00,32.7,-6.1,29.77,ENE,60,0.0,0.0,18,-99.99,,---,-99.99,VWS V14.01,2013-03-18 03:15:00,
2013-03-17 23:20:00,32.9,-5.9,29.77,ENE,73,0.0,0.0,18,-99.99,,---,-99.99,VWS V14.01,2013-03-18 03:20:00,
2013-03-17 23:25:00,33.1,-5.8,29.77,ESE,103,0.0,0.0,18,-99.99,,---,-99.99,VWS V14.01,2013-03-18 03:25:00,
2013-03-17 23:30:00,33.1,-5.8,29.77,East,79,0.0,0.0,18,-99.99,,---,-99.99,VWS V14.01,2013-03-18 03:30:00,
2013-03-17 23:35:00,33.1,-5.8,29.77,East,90,0.0,0.0,18,-99.99,,---,-99.99,VWS V14.01,2013-03-18 03:35:00,
2013-03-17 23:40:00,33.1,-5.8,29.77,ENE,74,0.0,0.0,18,-99.99,,---,-99.99,VWS V14.01,2013-03-18 03:40:00,
2013-03-17 23:45:00,33.1,-5.8,29.77,ENE,76,3.1,3.1,18,-99.99,,---,-99.99,VWS V14.01,2013-03-18 03:45:00,
2013-03-17 23:50:00,32.9,-5.9,29.77,ENE,72,2.2,2.2,18,-99.99,,---,-99.99,VWS V14.01,2013-03-18 03:50:00,
2013-03-17 23:56:00,32.7,-6.1,29.77,East,80,0.0,0.0,18,-99.99,,---,-99.99,VWS V14.01,2013-03-18 03:56:00,